Time;durP1;ratioP1;P1;durP2;ratioP2;P2;SDS_P1;SDS_P2;PMS_P1;PMS_P2;Temp;Humidity;BMP_temperature;BMP_pressure;BME280_temperature;BME280_humidity;BME280_pressure;Samples;Min_cycle;Max_cycle;Signal;HPM_P1;HPM_P2
2023/01/09 00:02:06;;;;;;;1.13;0.75;;;18.50;57.00;;;;;;5052764;28;20198;-61
2023/01/09 00:04:31;;;;;;;0.95;0.70;;;18.50;57.00;;;;;;5051828;28;20552;-61
2023/01/09 00:06:57;;;;;;;3.70;1.13;;;18.50;57.00;;;;;;5052810;28;20179;-61
2023/01/09 00:09:23;;;;;;;1.60;1.00;;;18.40;56.90;;;;;;5052838;28;20183;-61
2023/01/09 00:11:48;;;;;;;0.77;0.60;;;18.40;57.00;;;;;;5051831;28;20182;-61
2023/01/09 00:14:15;;;;;;;0.80;0.80;;;18.40;57.00;;;;;;5053069;28;20182;-61
2023/01/09 00:16:40;;;;;;;2.05;0.80;;;18.40;57.00;;;;;;5052525;28;20206;-61
2023/01/09 00:19:06;;;;;;;0.85;0.60;;;18.40;57.00;;;;;;5051956;28;20237;-60
2023/01/09 00:21:31;;;;;;;0.88;0.80;;;18.30;57.00;;;;;;5052374;28;20201;-61
2023/01/09 00:23:57;;;;;;;0.80;0.70;;;18.40;57.10;;;;;;5052923;28;20542;-61
2023/01/09 00:26:22;;;;;;;0.82;0.50;;;18.30;57.00;;;;;;5051802;28;20630;-60
2023/01/09 00:28:48;;;;;;;1.02;0.80;;;18.30;57.10;;;;;;5052489;28;20179;-60
2023/01/09 00:31:14;;;;;;;0.80;0.80;;;18.30;57.00;;;;;;5052594;28;20171;-60
2023/01/09 00:33:43;;;;;;;1.33;0.50;;;18.30;57.00;;;;;;5055159;28;20190;-61
2023/01/09 00:36:09;;;;;;;1.40;0.68;;;18.30;57.10;;;;;;5056934;28;20301;-61
2023/01/09 00:38:36;;;;;;;0.45;0.45;;;18.20;57.00;;;;;;5056678;28;20259;-61
2023/01/09 00:41:02;;;;;;;0.63;0.63;;;18.20;57.00;;;;;;5056277;28;20182;-61
2023/01/09 00:43:30;;;;;;;0.60;0.60;;;18.20;57.10;;;;;;5056771;28;20175;-61
2023/01/09 00:45:56;;;;;;;0.70;0.60;;;18.20;57.00;;;;;;5056549;28;20545;-61
2023/01/09 00:48:25;;;;;;;0.57;0.57;;;18.20;57.10;;;;;;5054313;28;20174;-61
2023/01/09 00:50:54;;;;;;;0.93;0.60;;;18.20;57.10;;;;;;5054912;28;20187;-60
2023/01/09 00:53:22;;;;;;;0.60;0.50;;;18.20;57.10;;;;;;5056669;28;20179;-61
2023/01/09 00:55:47;;;;;;;1.20;0.77;;;18.20;57.10;;;;;;5055533;28;20214;-61
2023/01/09 00:58:13;;;;;;;1.30;0.57;;;18.20;57.10;;;;;;5056506;28;20167;-60
2023/01/09 01:00:39;;;;;;;0.70;0.70;;;18.20;57.10;;;;;;5054913;28;20262;-61
2023/01/09 01:03:04;;;;;;;0.70;0.65;;;18.10;57.00;;;;;;5056348;28;20254;-61
2023/01/09 01:08:16;;;;;;;0.93;0.65;;;18.10;57.10;;;;;;5055606;28;20248;-61
2023/01/09 01:10:42;;;;;;;1.08;0.70;;;18.10;57.10;;;;;;5055599;28;20182;-60
2023/01/09 01:13:08;;;;;;;0.55;0.55;;;18.10;57.00;;;;;;5055937;28;20171;-60
2023/01/09 01:15:33;;;;;;;0.80;0.80;;;18.00;57.00;;;;;;5054955;28;20222;-62
2023/01/09 01:17:59;;;;;;;1.15;0.70;;;18.10;57.10;;;;;;5055905;28;20175;-61
2023/01/09 01:20:25;;;;;;;1.23;0.60;;;18.10;57.10;;;;;;5055568;28;20233;-61
2023/01/09 01:22:50;;;;;;;0.57;0.57;;;18.00;57.00;;;;;;5055051;28;20221;-61
2023/01/09 01:25:16;;;;;;;1.33;0.60;;;18.00;57.10;;;;;;5055980;28;20171;-61
2023/01/09 01:27:42;;;;;;;0.80;0.50;;;18.00;57.00;;;;;;5055789;28;20179;-61
2023/01/09 01:30:09;;;;;;;1.17;0.63;;;18.00;56.90;;;;;;5055285;28;20195;-61
2023/01/09 01:32:34;;;;;;;0.50;0.50;;;18.00;56.90;;;;;;5055741;28;20179;-61
2023/01/09 01:35:00;;;;;;;0.82;0.68;;;18.00;56.90;;;;;;5054564;28;20657;-61
2023/01/09 01:37:26;;;;;;;1.02;0.75;;;18.00;56.90;;;;;;5054961;28;20222;-61
2023/01/09 01:39:52;;;;;;;0.85;0.60;;;18.00;56.90;;;;;;5055223;28;20596;-61
2023/01/09 01:42:17;;;;;;;1.00;0.60;;;18.00;57.00;;;;;;5055643;28;20171;-61
2023/01/09 01:44:58;;;;;;;0.77;0.68;;;17.90;56.90;;;;;;5053442;28;20175;-61
2023/01/09 01:47:56;;;;;;;0.75;0.60;;;17.90;56.90;;;;;;5055232;28;20637;-61
2023/01/09 01:50:41;;;;;;;0.65;0.65;;;17.90;56.90;;;;;;5054476;28;20698;-61
2023/01/09 01:53:15;;;;;;;0.80;0.60;;;17.90;56.90;;;;;;5054177;28;20220;-61
2023/01/09 01:56:03;;;;;;;1.00;0.60;;;17.90;56.90;;;;;;5055218;28;20209;-61
2023/01/09 01:58:28;;;;;;;0.60;0.60;;;17.80;56.90;;;;;;5053535;28;20182;-61
2023/01/09 02:00:54;;;;;;;1.23;0.88;;;17.90;56.90;;;;;;5053847;28;20175;-61
2023/01/09 02:03:22;;;;;;;0.60;0.60;;;17.80;56.80;;;;;;5055239;28;20171;-61
2023/01/09 02:05:47;;;;;;;0.60;0.60;;;17.80;56.90;;;;;;5053158;28;20533;-62
2023/01/09 02:08:13;;;;;;;0.50;0.50;;;17.80;56.80;;;;;;5055083;28;20704;-61
2023/01/09 02:10:39;;;;;;;0.57;0.57;;;17.80;56.80;;;;;;5053741;28;20263;-61
2023/01/09 02:13:05;;;;;;;0.60;0.50;;;17.80;56.90;;;;;;5054474;28;20176;-61
2023/01/09 02:15:59;;;;;;;0.95;0.52;;;17.80;56.90;;;;;;5054890;28;20258;-61
2023/01/09 02:18:54;;;;;;;0.60;0.60;;;17.80;56.90;;;;;;5053290;28;20186;-62
2023/01/09 02:21:34;;;;;;;0.60;0.60;;;17.70;56.80;;;;;;5053560;28;20296;-61
2023/01/09 02:24:09;;;;;;;0.47;0.47;;;17.80;56.90;;;;;;5053792;28;20554;-61
2023/01/09 02:26:56;;;;;;;0.75;0.50;;;17.70;57.40;;;;;;5052855;28;20542;-60
2023/01/09 02:30:01;;;;;;;1.65;0.52;;;17.70;56.80;;;;;;5054918;28;20171;-61
2023/01/09 02:32:52;;;;;;;0.57;0.57;;;17.70;56.80;;;;;;5051989;28;20191;-61
2023/01/09 02:35:21;;;;;;;0.88;0.70;;;17.70;56.80;;;;;;5053547;28;20186;-61
2023/01/09 02:37:53;;;;;;;0.52;0.52;;;17.70;56.80;;;;;;5053029;28;20222;-61
2023/01/09 02:40:24;;;;;;;0.88;0.55;;;17.70;56.80;;;;;;5053933;28;20182;-62
2023/01/09 02:42:50;;;;;;;0.85;0.43;;;17.70;56.80;;;;;;5052859;28;20515;-61
2023/01/09 02:45:15;;;;;;;0.70;0.50;;;17.70;56.70;;;;;;5053451;28;20221;-61
2023/01/09 02:47:42;;;;;;;0.63;0.63;;;17.60;56.70;;;;;;5053470;28;20652;-62
2023/01/09 02:50:14;;;;;;;1.02;0.70;;;17.70;56.80;;;;;;5054480;28;20248;-61
2023/01/09 02:53:09;;;;;;;0.60;0.60;;;17.70;56.80;;;;;;5052836;28;20179;-60
2023/01/09 02:55:34;;;;;;;0.30;0.30;;;17.60;56.70;;;;;;5052614;28;20250;-61
2023/01/09 02:58:19;;;;;;;0.60;0.60;;;17.60;56.70;;;;;;5054347;28;20732;-61
2023/01/09 03:00:45;;;;;;;0.73;0.60;;;17.60;56.80;;;;;;5053324;28;20171;-61
2023/01/09 03:03:22;;;;;;;0.60;0.60;;;17.60;56.70;;;;;;5053719;28;20572;-61
2023/01/09 03:06:19;;;;;;;1.33;0.75;;;17.60;56.70;;;;;;5052992;28;20539;-61
2023/01/09 03:08:50;;;;;;;0.52;0.50;;;17.60;56.70;;;;;;5051817;28;20182;-61
2023/01/09 03:11:15;;;;;;;0.50;0.50;;;17.60;56.70;;;;;;5052986;28;20240;-61
2023/01/09 03:13:49;;;;;;;0.65;0.65;;;17.60;56.70;;;;;;5052470;28;20532;-60
2023/01/09 03:16:19;;;;;;;0.60;0.60;;;17.60;56.80;;;;;;5051863;28;20685;-60
2023/01/09 03:18:44;;;;;;;0.50;0.50;;;17.60;56.70;;;;;;5052531;28;20175;-60
2023/01/09 03:21:10;;;;;;;0.90;0.50;;;17.50;56.70;;;;;;5052275;28;20313;-60
2023/01/09 03:23:48;;;;;;;1.20;0.50;;;17.60;56.80;;;;;;5051591;28;20197;-60
2023/01/09 03:26:14;;;;;;;0.60;0.60;;;17.50;56.70;;;;;;5053745;28;20265;-59
2023/01/09 03:28:39;;;;;;;1.45;0.60;;;17.50;56.70;;;;;;5052569;28;20254;-60
2023/01/09 03:31:05;;;;;;;0.60;0.50;;;17.50;56.70;;;;;;5052568;28;20178;-60
2023/01/09 03:33:30;;;;;;;0.60;0.60;;;17.50;56.70;;;;;;5053615;28;20606;-60
2023/01/09 03:35:56;;;;;;;0.98;0.60;;;17.60;56.80;;;;;;5052687;28;20733;-60
2023/01/09 03:38:21;;;;;;;0.85;0.60;;;17.50;56.70;;;;;;5053598;28;20262;-60
2023/01/09 03:40:47;;;;;;;0.82;0.45;;;17.50;56.70;;;;;;5053020;28;20653;-61
2023/01/09 03:43:12;;;;;;;0.40;0.40;;;17.50;56.70;;;;;;5052645;28;20637;-60
2023/01/09 03:45:38;;;;;;;1.05;0.63;;;17.50;56.70;;;;;;5053290;28;20179;-60
2023/01/09 03:48:04;;;;;;;0.65;0.57;;;17.50;56.70;;;;;;5053285;28;20683;-60
2023/01/09 03:50:29;;;;;;;0.50;0.50;;;17.50;56.80;;;;;;5052604;28;20167;-60
2023/01/09 03:52:55;;;;;;;0.77;0.50;;;17.50;56.70;;;;;;5052996;28;20301;-60
2023/01/09 03:55:20;;;;;;;0.52;0.50;;;17.50;56.70;;;;;;5053140;28;20171;-60
2023/01/09 03:57:46;;;;;;;0.60;0.57;;;17.50;56.70;;;;;;5052174;28;20202;-60
2023/01/09 04:00:12;;;;;;;0.52;0.52;;;17.50;56.70;;;;;;5053354;28;20171;-60
2023/01/09 04:02:38;;;;;;;1.38;0.63;;;17.40;56.70;;;;;;5052780;28;20233;-60
2023/01/09 04:05:04;;;;;;;0.90;0.73;;;17.40;56.70;;;;;;5052557;28;20167;-60
2023/01/09 04:07:29;;;;;;;0.70;0.50;;;17.40;56.70;;;;;;5052385;28;20185;-60
2023/01/09 04:09:55;;;;;;;0.45;0.40;;;17.40;56.70;;;;;;5052664;28;20175;-60
2023/01/09 04:12:20;;;;;;;0.40;0.40;;;17.50;56.80;;;;;;5052257;28;20179;-60
2023/01/09 04:14:46;;;;;;;0.52;0.40;;;17.50;56.80;;;;;;5052770;28;20217;-60
2023/01/09 04:17:11;;;;;;;0.82;0.40;;;17.40;56.70;;;;;;5052985;28;20211;-60
2023/01/09 04:19:37;;;;;;;0.88;0.60;;;17.40;56.70;;;;;;5051769;28;20211;-60
2023/01/09 04:22:02;;;;;;;0.52;0.52;;;17.40;56.70;;;;;;5053000;28;20171;-60
2023/01/09 04:24:28;;;;;;;0.63;0.45;;;17.40;56.70;;;;;;5052889;28;20544;-60
2023/01/09 04:26:54;;;;;;;1.00;0.60;;;17.30;56.60;;;;;;5051567;28;20638;-60
2023/01/09 04:29:20;;;;;;;0.50;0.50;;;17.40;56.70;;;;;;5052965;28;20178;-60
2023/01/09 04:31:45;;;;;;;0.80;0.50;;;17.40;56.70;;;;;;5051925;28;20687;-60
2023/01/09 04:34:11;;;;;;;0.57;0.57;;;17.30;56.70;;;;;;5052533;28;20176;-60
2023/01/09 04:36:37;;;;;;;0.70;0.70;;;17.30;56.70;;;;;;5052440;28;20206;-60
2023/01/09 04:39:03;;;;;;;1.20;0.82;;;17.30;56.70;;;;;;5052038;28;20251;-60
2023/01/09 04:44:12;;;;;;;0.73;0.65;;;17.30;56.70;;;;;;5052802;28;20182;-60
2023/01/09 04:46:38;;;;;;;1.33;0.60;;;17.30;56.70;;;;;;5051746;28;20179;-60
2023/01/09 04:49:04;;;;;;;0.57;0.50;;;17.30;56.70;;;;;;5052780;28;20171;-60
2023/01/09 04:51:29;;;;;;;1.77;0.60;;;17.30;56.70;;;;;;5052654;28;20533;-60
2023/01/09 04:53:55;;;;;;;0.73;0.65;;;17.30;56.70;;;;;;5051501;28;20179;-60
2023/01/09 04:56:20;;;;;;;1.85;0.68;;;17.30;56.70;;;;;;5052557;28;20202;-60
2023/01/09 04:58:46;;;;;;;1.58;0.50;;;17.30;56.70;;;;;;5052238;28;20236;-60
2023/01/09 05:01:11;;;;;;;0.50;0.45;;;17.30;56.70;;;;;;5051948;28;20240;-60
2023/01/09 05:03:37;;;;;;;0.43;0.43;;;17.30;56.70;;;;;;5052195;28;20244;-60
2023/01/09 05:06:02;;;;;;;0.50;0.50;;;17.20;56.60;;;;;;5052470;28;20171;-60
2023/01/09 05:08:28;;;;;;;0.52;0.50;;;17.20;56.60;;;;;;5051658;28;20513;-60
2023/01/09 05:10:53;;;;;;;2.13;0.80;;;17.20;56.60;;;;;;5051963;28;20255;-60
2023/01/09 05:13:19;;;;;;;0.50;0.50;;;17.20;56.60;;;;;;5052268;28;20171;-60
2023/01/09 05:15:44;;;;;;;0.95;0.60;;;17.20;56.50;;;;;;5051396;28;20199;-60
2023/01/09 05:18:10;;;;;;;0.70;0.60;;;17.20;56.50;;;;;;5053111;28;20179;-60
2023/01/09 05:20:36;;;;;;;0.60;0.47;;;17.20;56.60;;;;;;5055365;28;20264;-60
2023/01/09 05:23:01;;;;;;;1.38;0.80;;;17.20;56.60;;;;;;5055192;28;20179;-60
2023/01/09 05:25:27;;;;;;;1.00;0.55;;;17.20;56.60;;;;;;5056098;28;20283;-60
2023/01/09 05:27:52;;;;;;;0.82;0.55;;;17.20;56.60;;;;;;5054998;28;20178;-59
2023/01/09 05:30:18;;;;;;;0.70;0.57;;;17.20;56.50;;;;;;5056016;28;20163;-60
2023/01/09 05:32:44;;;;;;;0.50;0.47;;;17.20;56.50;;;;;;5055594;28;20175;-60
2023/01/09 05:35:09;;;;;;;1.08;0.55;;;17.20;56.60;;;;;;5055115;28;21141;-60
2023/01/09 05:37:35;;;;;;;1.88;0.70;;;17.20;56.50;;;;;;5055329;28;20222;-60
2023/01/09 05:40:00;;;;;;;0.50;0.50;;;17.10;56.50;;;;;;5055747;28;20533;-61
2023/01/09 05:42:26;;;;;;;0.80;0.68;;;17.10;56.50;;;;;;5054983;28;20533;-61
2023/01/09 05:44:51;;;;;;;1.85;1.00;;;17.10;56.50;;;;;;5055213;28;20664;-60
2023/01/09 05:47:17;;;;;;;0.50;0.50;;;17.10;56.50;;;;;;5055405;28;20191;-61
2023/01/09 05:49:42;;;;;;;0.93;0.55;;;17.10;56.50;;;;;;5054646;28;20171;-60
2023/01/09 05:52:08;;;;;;;0.70;0.50;;;17.10;56.50;;;;;;5055666;28;20176;-60
2023/01/09 05:54:33;;;;;;;0.95;0.60;;;17.10;56.40;;;;;;5055219;28;20178;-60
2023/01/09 05:56:59;;;;;;;1.45;0.80;;;17.10;56.50;;;;;;5054788;28;20207;-60
2023/01/09 05:59:25;;;;;;;1.42;0.63;;;17.10;56.50;;;;;;5055416;28;20179;-60
2023/01/09 06:01:50;;;;;;;0.70;0.63;;;17.10;56.50;;;;;;5055203;28;20190;-60
2023/01/09 06:04:16;;;;;;;0.50;0.50;;;17.10;56.50;;;;;;5054583;28;20171;-62
2023/01/09 06:06:41;;;;;;;0.77;0.63;;;17.10;56.50;;;;;;5055152;28;20171;-62
2023/01/09 06:09:07;;;;;;;0.93;0.70;;;17.10;56.50;;;;;;5055054;28;20175;-61
2023/01/09 06:11:34;;;;;;;1.20;0.80;;;17.10;56.50;;;;;;5054011;28;20175;-61
2023/01/09 06:14:00;;;;;;;0.60;0.50;;;17.10;56.50;;;;;;5055209;28;20518;-60
2023/01/09 06:16:26;;;;;;;0.88;0.60;;;17.10;56.50;;;;;;5055200;28;20215;-60
2023/01/09 06:18:51;;;;;;;0.90;0.68;;;17.00;56.40;;;;;;5054048;28;20630;-60
2023/01/09 06:21:17;;;;;;;0.77;0.70;;;17.00;56.40;;;;;;5054838;28;20219;-60
2023/01/09 06:23:42;;;;;;;1.35;0.50;;;17.00;56.40;;;;;;5054479;28;20164;-60
2023/01/09 06:26:08;;;;;;;1.00;0.70;;;17.00;56.40;;;;;;5054373;28;20228;-60
2023/01/09 06:28:33;;;;;;;0.80;0.70;;;17.00;56.40;;;;;;5054485;28;20532;-60
2023/01/09 06:30:59;;;;;;;0.43;0.43;;;17.00;56.40;;;;;;5054139;28;20621;-60
2023/01/09 06:33:24;;;;;;;0.93;0.70;;;17.00;56.40;;;;;;5054033;28;20171;-61
2023/01/09 06:35:50;;;;;;;1.38;0.70;;;17.00;56.40;;;;;;5054375;28;20202;-61
2023/01/09 06:38:15;;;;;;;1.02;0.60;;;17.00;56.40;;;;;;5053827;28;20179;-61
2023/01/09 06:40:41;;;;;;;1.25;0.70;;;17.00;56.40;;;;;;5054371;28;20182;-62
2023/01/09 06:43:06;;;;;;;1.55;0.73;;;17.00;56.40;;;;;;5054658;28;20186;-62
2023/01/09 06:45:32;;;;;;;0.90;0.47;;;17.00;56.40;;;;;;5053624;28;20171;-62
2023/01/09 06:47:58;;;;;;;1.08;0.80;;;17.00;56.40;;;;;;5054535;28;20171;-61
2023/01/09 06:50:23;;;;;;;1.83;0.70;;;17.00;56.40;;;;;;5054442;28;20542;-62
2023/01/09 06:52:49;;;;;;;0.50;0.50;;;17.00;56.30;;;;;;5053420;28;20668;-61
2023/01/09 06:55:16;;;;;;;0.70;0.70;;;16.90;56.30;;;;;;5054280;28;20179;-60
2023/01/09 06:57:42;;;;;;;2.08;0.65;;;16.90;56.30;;;;;;5054139;28;20234;-61
2023/01/09 07:00:08;;;;;;;0.57;0.50;;;16.90;56.30;;;;;;5053443;28;20672;-61
2023/01/09 07:02:33;;;;;;;0.95;0.60;;;16.90;56.30;;;;;;5053803;28;20233;-61
2023/01/09 07:04:59;;;;;;;1.17;0.75;;;16.90;56.30;;;;;;5054138;28;20167;-62
2023/01/09 07:07:25;;;;;;;1.10;0.60;;;16.90;56.90;;;;;;5053286;28;20184;-61
2023/01/09 07:09:50;;;;;;;1.05;0.68;;;16.90;56.30;;;;;;5053945;28;20641;-61
2023/01/09 07:12:16;;;;;;;0.88;0.52;;;16.90;56.30;;;;;;5054103;28;20179;-61
2023/01/09 07:14:41;;;;;;;1.48;0.50;;;16.90;56.30;;;;;;5052660;28;20171;-61
2023/01/09 07:17:07;;;;;;;1.05;0.73;;;16.90;56.30;;;;;;5053822;28;20360;-61
2023/01/09 07:19:32;;;;;;;0.70;0.50;;;16.90;56.30;;;;;;5053318;28;20245;-61
2023/01/09 07:21:58;;;;;;;0.98;0.70;;;16.90;56.30;;;;;;5053024;28;20182;-61
2023/01/09 07:24:23;;;;;;;1.00;0.88;;;16.90;56.30;;;;;;5053930;28;20224;-61
2023/01/09 07:26:49;;;;;;;1.35;0.80;;;16.80;56.30;;;;;;5053591;28;20229;-60
2023/01/09 07:29:14;;;;;;;1.02;0.90;;;16.80;56.30;;;;;;5053080;28;20167;-61
2023/01/09 07:31:40;;;;;;;0.63;0.60;;;16.80;56.20;;;;;;5053398;28;20171;-61
2023/01/09 07:34:05;;;;;;;1.42;0.93;;;16.80;56.20;;;;;;5053509;28;20179;-62
2023/01/09 07:36:31;;;;;;;1.13;0.70;;;16.80;56.20;;;;;;5052376;28;20670;-61
2023/01/09 07:38:56;;;;;;;1.00;0.70;;;16.80;56.20;;;;;;5053367;28;20183;-61
2023/01/09 07:41:22;;;;;;;0.75;0.68;;;16.80;56.20;;;;;;5052887;28;20172;-61
2023/01/09 07:43:47;;;;;;;1.48;0.70;;;16.80;56.30;;;;;;5052277;28;20171;-61
2023/01/09 07:46:13;;;;;;;1.02;0.90;;;16.80;56.20;;;;;;5053510;28;20179;-61
2023/01/09 07:48:38;;;;;;;3.38;0.80;;;16.80;56.20;;;;;;5052390;28;20183;-61
2023/01/09 07:51:05;;;;;;;1.23;0.70;;;16.80;56.20;;;;;;5053199;28;20537;-60
2023/01/09 07:53:30;;;;;;;1.88;0.98;;;16.80;56.20;;;;;;5053196;28;20183;-75
2023/01/09 07:55:56;;;;;;;0.95;0.80;;;16.80;56.50;;;;;;5054016;28;20250;-67
2023/01/09 07:58:21;;;;;;;0.90;0.73;;;16.80;56.50;;;;;;5053243;28;20183;-74
2023/01/09 08:00:47;;;;;;;2.53;0.77;;;16.80;56.70;;;;;;5053027;28;20224;-75
2023/01/09 08:03:12;;;;;;;3.10;0.88;;;16.80;56.60;;;;;;5052378;28;20759;-72
2023/01/09 08:05:38;;;;;;;1.17;0.82;;;16.70;56.90;;;;;;5054036;28;20265;-81
2023/01/09 08:08:03;;;;;;;1.42;0.65;;;16.80;56.90;;;;;;5064304;28;20170;-79
2023/01/09 08:10:29;;;;;;;4.78;1.35;;;16.80;56.70;;;;;;5072385;28;20253;-77
2023/01/09 08:12:54;;;;;;;2.85;0.70;;;16.80;57.10;;;;;;5072878;28;20174;-75
2023/01/09 08:15:20;;;;;;;2.45;0.90;;;16.80;56.70;;;;;;5073104;28;20174;-77
2023/01/09 08:17:45;;;;;;;2.88;0.85;;;16.80;56.60;;;;;;5071764;28;20672;-79
2023/01/09 08:20:12;;;;;;;1.73;0.68;;;16.80;56.60;;;;;;5072745;28;20226;-82
2023/01/09 08:22:41;;;;;;;3.03;1.25;;;16.80;56.80;;;;;;5072756;28;20186;-79
2023/01/09 08:25:07;;;;;;;1.13;1.00;;;16.80;56.70;;;;;;5072297;28;20171;-73
2023/01/09 08:27:33;;;;;;;1.00;0.90;;;16.80;56.70;;;;;;5072545;28;20253;-81
2023/01/09 08:29:58;;;;;;;2.28;0.80;;;16.80;56.60;;;;;;5072795;28;20257;-78
2023/01/09 08:32:24;;;;;;;1.40;0.95;;;16.70;56.70;;;;;;5072346;28;20166;-78
2023/01/09 08:34:50;;;;;;;2.22;0.80;;;16.70;56.60;;;;;;5072442;28;20175;-77
2023/01/09 08:37:15;;;;;;;1.45;1.35;;;16.70;56.60;;;;;;5072979;28;20221;-75
2023/01/09 08:39:41;;;;;;;1.67;0.95;;;16.70;56.70;;;;;;5071924;28;20202;-81
2023/01/09 08:47:35;;;;;;;2.22;1.00;;;16.60;56.60;;;;;;5072434;28;20185;-79
2023/01/09 08:50:01;;;;;;;5.13;1.23;;;16.60;56.60;;;;;;5072880;28;20167;-81
2023/01/09 08:52:29;;;;;;;1.42;0.80;;;16.60;56.70;;;;;;5072067;28;20538;-83
2023/01/09 08:54:55;;;;;;;1.90;0.93;;;16.60;56.70;;;;;;5076338;28;20224;-81
2023/01/09 08:57:20;;;;;;;2.53;1.10;;;16.50;56.70;;;;;;5076464;28;20214;-80
2023/01/09 08:59:46;;;;;;;1.88;0.85;;;16.60;56.70;;;;;;5076197;28;20174;-80
2023/01/09 09:02:11;;;;;;;1.95;1.10;;;16.50;56.60;;;;;;5077009;28;20189;-78
2023/01/09 09:04:37;;;;;;;1.83;0.90;;;16.50;56.60;;;;;;5077226;28;20167;-80
2023/01/09 09:07:02;;;;;;;0.88;0.80;;;16.50;56.70;;;;;;5075773;28;20535;-80
2023/01/09 09:09:28;;;;;;;1.35;0.90;;;16.50;56.90;;;;;;5076567;28;20304;-79
2023/01/09 09:11:53;;;;;;;2.42;0.90;;;16.50;56.70;;;;;;5076058;28;20198;-80
2023/01/09 09:17:03;;;;;;;1.98;0.82;;;16.50;56.80;;;;;;5076563;28;20213;-83
2023/01/09 09:19:29;;;;;;;1.60;0.70;;;16.50;56.70;;;;;;5076843;28;20222;-84
2023/01/09 09:21:54;;;;;;;4.32;1.02;;;16.50;56.80;;;;;;5076085;28;20177;-82
2023/01/09 09:24:20;;;;;;;1.23;0.60;;;16.50;56.60;;;;;;5077183;28;20173;-81
2023/01/09 09:26:45;;;;;;;2.05;1.00;;;16.50;56.70;;;;;;5075820;28;20232;-83
2023/01/09 09:29:11;;;;;;;0.88;0.80;;;16.50;56.80;;;;;;5075415;28;20175;-78
2023/01/09 09:31:39;;;;;;;2.05;1.00;;;16.50;56.50;;;;;;5075768;28;20175;-81
2023/01/09 09:34:05;;;;;;;2.08;0.93;;;16.40;56.80;;;;;;5075343;28;20177;-75
2023/01/09 09:36:31;;;;;;;2.35;0.90;;;16.40;56.70;;;;;;5075754;28;20206;-80
2023/01/09 09:38:56;;;;;;;2.10;1.20;;;16.50;56.80;;;;;;5075670;28;20175;-82
2023/01/09 09:44:43;;;;;;;3.65;1.10;;;16.50;56.70;;;;;;5075796;28;20228;-83
2023/01/09 09:47:39;;;;;;;1.05;0.85;;;16.40;56.60;;;;;;5076105;28;20808;-81
2023/01/09 09:50:34;;;;;;;1.48;0.90;;;16.50;56.60;;;;;;5074457;28;20170;-83
2023/01/09 09:53:04;;;;;;;4.57;1.20;;;16.50;56.50;;;;;;5072523;28;20189;-81
2023/01/09 09:55:31;;;;;;;2.42;0.80;;;16.50;56.70;;;;;;5074993;28;20182;-81
2023/01/09 09:58:03;;;;;;;1.70;0.90;;;16.50;56.70;;;;;;5074133;28;20639;-82
2023/01/09 10:00:29;;;;;;;0.90;0.80;;;16.40;56.70;;;;;;5058026;28;20179;-80
2023/01/09 10:02:58;;;;;;;2.10;0.88;;;16.40;56.50;;;;;;5056731;28;20174;-78
2023/01/09 10:05:29;;;;;;;1.95;0.90;;;16.40;56.60;;;;;;5073656;28;20528;-81
2023/01/09 10:07:55;;;;;;;1.95;0.90;;;16.40;56.60;;;;;;5074125;28;20179;-82
2023/01/09 10:10:32;;;;;;;0.95;0.77;;;16.50;56.70;;;;;;5073398;28;20174;-79
2023/01/09 10:12:58;;;;;;;1.95;0.90;;;16.40;56.80;;;;;;5058084;28;20179;-82
2023/01/09 10:15:41;;;;;;;1.15;0.85;;;16.50;56.80;;;;;;5074040;28;20659;-79
2023/01/09 10:18:18;;;;;;;1.00;0.90;;;16.50;56.70;;;;;;5073233;28;20186;-80
2023/01/09 10:20:57;;;;;;;1.05;0.80;;;16.60;56.70;;;;;;5074766;28;20228;-81
2023/01/09 10:23:37;;;;;;;2.08;0.80;;;16.60;56.70;;;;;;5074590;28;20178;-78
2023/01/09 10:26:15;;;;;;;1.00;0.70;;;16.60;56.50;;;;;;5075183;28;20258;-81
2023/01/09 10:28:58;;;;;;;2.17;1.33;;;16.60;56.50;;;;;;5074625;28;20178;-82
2023/01/09 10:31:39;;;;;;;0.98;0.85;;;16.60;56.50;;;;;;5074121;28;20208;-77
2023/01/09 10:34:16;;;;;;;2.95;1.05;;;16.60;56.50;;;;;;5073821;28;20178;-76
2023/01/09 10:36:55;;;;;;;1.42;0.70;;;16.60;56.50;;;;;;5073271;28;20217;-79
2023/01/09 10:39:27;;;;;;;0.73;0.70;;;16.60;56.60;;;;;;5072987;28;20170;-78
2023/01/09 10:41:56;;;;;;;1.45;0.88;;;16.60;56.70;;;;;;5073221;28;20181;-82
2023/01/09 10:44:25;;;;;;;3.00;1.08;;;16.50;56.60;;;;;;5074315;28;20177;-82
2023/01/09 10:46:55;;;;;;;1.42;0.90;;;16.60;56.70;;;;;;5056956;28;20232;-81
2023/01/09 10:49:21;;;;;;;1.85;1.30;;;16.60;56.50;;;;;;5074847;28;20171;-82
2023/01/09 10:51:49;;;;;;;1.08;0.85;;;16.60;56.40;;;;;;5072457;28;20193;-80
2023/01/09 10:54:22;;;;;;;1.10;0.88;;;16.60;56.40;;;;;;5074462;28;20177;-81
2023/01/09 10:56:53;;;;;;;1.88;0.90;;;16.60;56.40;;;;;;5074513;28;20237;-81
2023/01/09 10:59:18;;;;;;;1.05;0.77;;;16.60;56.40;;;;;;5075766;28;20190;-77
2023/01/09 11:01:44;;;;;;;1.92;1.15;;;16.60;56.30;;;;;;5085770;28;20186;-80
2023/01/09 11:04:31;;;;;;;2.13;1.00;;;16.60;56.60;;;;;;5084237;28;20181;-84
2023/01/09 11:07:17;;;;;;;1.85;0.80;;;16.50;56.80;;;;;;5077592;28;20175;-81
2023/01/09 11:09:53;;;;;;;1.50;0.85;;;16.50;56.70;;;;;;5058145;28;20258;-82
2023/01/09 11:12:32;;;;;;;2.90;0.80;;;16.60;56.50;;;;;;5072849;28;20223;-71
2023/01/09 11:15:19;;;;;;;1.17;0.70;;;16.60;56.80;;;;;;5073867;28;20174;-74
2023/01/09 11:17:48;;;;;;;2.50;1.33;;;16.70;56.40;;;;;;5073472;28;20213;-77
2023/01/09 11:20:17;;;;;;;2.13;1.15;;;16.70;56.30;;;;;;5055548;28;20312;-74
2023/01/09 11:22:46;;;;;;;1.88;0.75;;;16.80;56.30;;;;;;5073334;28;20177;-72
2023/01/09 11:25:13;;;;;;;2.33;0.80;;;16.80;56.30;;;;;;5073942;28;20182;-75
2023/01/09 11:27:38;;;;;;;2.78;1.00;;;16.90;56.30;;;;;;5072864;28;20182;-74
2023/01/09 11:30:26;;;;;;;1.08;0.80;;;16.90;56.30;;;;;;5073817;28;20174;-76
2023/01/09 11:32:52;;;;;;;1.20;0.85;;;16.90;56.40;;;;;;5073187;28;20190;-77
2023/01/09 11:35:21;;;;;;;3.03;1.00;;;16.90;56.40;;;;;;5073224;28;20179;-78
2023/01/09 11:37:47;;;;;;;2.40;1.08;;;16.90;56.40;;;;;;5071944;28;20297;-78
2023/01/09 11:40:18;;;;;;;2.13;1.13;;;16.90;56.40;;;;;;5073193;28;20257;-75
2023/01/09 11:43:20;;;;;;;2.13;0.90;;;16.80;56.60;;;;;;5070902;28;20178;-76
2023/01/09 11:45:55;;;;;;;2.15;0.65;;;16.80;56.60;;;;;;5071472;28;20182;-75
2023/01/09 11:48:31;;;;;;;3.55;0.90;;;16.80;56.80;;;;;;5055600;28;20590;-73
2023/01/09 11:50:58;;;;;;;2.70;0.88;;;16.70;56.80;;;;;;5073239;28;20186;-76
2023/01/09 11:53:24;;;;;;;1.38;0.85;;;16.70;57.00;;;;;;5073303;28;20253;-76
2023/01/09 11:55:55;;;;;;;2.75;0.90;;;16.70;57.10;;;;;;5072227;28;20258;-75
2023/01/09 11:58:21;;;;;;;1.33;0.70;;;16.70;57.30;;;;;;5072165;28;20170;-76
2023/01/09 12:01:14;;;;;;;1.60;0.88;;;16.70;57.30;;;;;;5072657;28;20189;-76
2023/01/09 12:03:45;;;;;;;1.05;0.90;;;16.70;57.40;;;;;;5071344;28;20178;-74
2023/01/09 12:06:16;;;;;;;1.05;0.60;;;16.70;57.40;;;;;;5073224;28;20171;-75
2023/01/09 12:08:55;;;;;;;1.60;0.90;;;16.60;57.40;;;;;;5072371;28;20220;-74
2023/01/09 12:11:49;;;;;;;1.02;0.80;;;16.60;57.40;;;;;;5055621;28;20227;-76
2023/01/09 12:14:41;;;;;;;2.15;0.70;;;16.60;57.40;;;;;;5069620;28;20198;-77
2023/01/09 12:17:28;;;;;;;1.60;0.90;;;16.70;57.40;;;;;;5072236;28;20210;-77
2023/01/09 12:19:59;;;;;;;1.17;0.90;;;16.70;57.50;;;;;;5072456;28;20233;-71
2023/01/09 12:22:31;;;;;;;1.13;0.80;;;16.70;57.40;;;;;;5073365;28;20625;-78
2023/01/09 12:25:21;;;;;;;4.00;1.02;;;16.70;57.50;;;;;;5071152;28;20174;-78
2023/01/09 12:28:07;;;;;;;2.30;0.93;;;16.70;57.50;;;;;;5070884;28;20187;-66
2023/01/09 12:30:47;;;;;;;1.83;0.90;;;16.70;57.50;;;;;;5071807;28;20207;-66
2023/01/09 12:33:24;;;;;;;1.65;0.93;;;16.70;58.20;;;;;;5073749;28;20178;-68
2023/01/09 12:36:01;;;;;;;3.50;1.00;;;16.70;57.50;;;;;;5071213;28;20699;-70
2023/01/09 12:38:54;;;;;;;1.80;1.00;;;16.70;57.70;;;;;;5070910;28;20178;-70
2023/01/09 12:41:33;;;;;;;1.02;0.63;;;16.70;57.60;;;;;;5072908;28;20228;-67
2023/01/09 12:44:17;;;;;;;2.10;1.08;;;16.70;57.70;;;;;;5071102;28;20174;-63
2023/01/09 12:47:05;;;;;;;1.42;0.93;;;16.70;57.60;;;;;;5072464;28;20213;-66
2023/01/09 12:49:40;;;;;;;3.70;0.90;;;16.70;57.50;;;;;;5071506;28;20181;-64
2023/01/09 12:52:16;;;;;;;0.73;0.60;;;16.70;57.60;;;;;;5054664;28;20192;-64
2023/01/09 12:54:42;;;;;;;3.95;1.05;;;16.70;57.60;;;;;;5072465;28;20227;-66
2023/01/09 12:57:23;;;;;;;3.78;0.65;;;16.70;57.70;;;;;;5071317;28;20293;-65
2023/01/09 12:59:54;;;;;;;1.13;0.60;;;16.70;57.60;;;;;;5070573;28;20185;-65
2023/01/09 13:02:22;;;;;;;2.97;1.10;;;16.70;57.60;;;;;;5054925;28;20210;-66
2023/01/09 13:05:09;;;;;;;2.33;0.80;;;16.70;57.50;;;;;;5072190;28;20174;-65
2023/01/09 13:07:39;;;;;;;1.50;0.80;;;16.70;57.60;;;;;;5072189;28;20184;-67
2023/01/09 13:10:17;;;;;;;2.95;0.90;;;16.70;57.70;;;;;;5071179;28;20217;-65
2023/01/09 13:12:42;;;;;;;3.45;1.17;;;16.70;57.90;;;;;;5069870;28;20228;-64
2023/01/09 13:15:25;;;;;;;5.57;1.00;;;16.60;57.60;;;;;;5054503;28;20574;-65
2023/01/09 13:17:53;;;;;;;4.10;1.00;;;16.70;57.80;;;;;;5071009;28;20219;-65